Osage, Minnesota
Current Conditions -  °F | °C
As of 12:03 AM on Thursday 23 Oct 2014 (Local Time) from KPKD Reporting Station
Haze Haze  
Wind Chill: 51°   Ceiling: 400
Heat Index: 51°   Visibility: 6mi
Dew Point: 51°   Wind: 8mph
Humidity: 100%   Direction: 170°S
Pressure: 29.92"   Gusts: NA
Location:  46.92°N, 95.26°W
Report Text: KPKD 230503Z AUTO 17007KT 6SM BR OVC004 11/11 A2992 RMK AO2 T01060106 TSNO
Loading
Personal Weather Stations






























Interactive Weather Map
Tropical Storm Tracking
New forecast layout! Learn more

10-Day Weather Forecast

Advertisements
Track Severe Weather on mobile